createdAt,value
2022-11-07T00:01:19.592Z,35.55
2022-11-07T00:03:46.812Z,35.00
2022-11-07T00:06:14.066Z,34.13
2022-11-07T00:08:41.039Z,34.15
2022-11-07T00:11:08.136Z,34.70
2022-11-07T00:13:35.085Z,34.55
2022-11-07T00:16:04.931Z,33.03
2022-11-07T00:18:32.111Z,33.90
2022-11-07T00:21:03.043Z,33.70
2022-11-07T00:23:30.100Z,33.42
2022-11-07T00:26:09.324Z,34.55
2022-11-07T00:28:38.030Z,32.10
2022-11-07T00:31:06.023Z,33.13
2022-11-07T00:33:33.102Z,30.60
2022-11-07T00:36:00.268Z,31.63
2022-11-07T00:38:27.746Z,32.53
2022-11-07T00:40:56.305Z,31.98
2022-11-07T00:43:24.004Z,30.83
2022-11-07T00:45:51.293Z,31.65
2022-11-07T00:48:18.245Z,30.55
2022-11-07T00:50:45.204Z,30.83
2022-11-07T00:53:12.763Z,32.22
2022-11-07T00:55:39.935Z,31.52
2022-11-07T00:58:11.241Z,30.90
2022-11-07T01:00:40.876Z,30.70
2022-11-07T01:03:26.491Z,31.10
2022-11-07T01:06:02.298Z,34.97
2022-11-07T01:08:29.591Z,32.00
2022-11-07T01:10:57.051Z,35.72
2022-11-07T01:13:24.429Z,34.80
2022-11-07T01:15:52.329Z,34.25
2022-11-07T01:18:19.330Z,35.47
2022-11-07T01:20:46.805Z,36.70
2022-11-07T01:23:14.227Z,34.35
2022-11-07T01:25:41.844Z,37.03
2022-11-07T01:28:10.097Z,35.63
2022-11-07T01:30:44.392Z,34.67
2022-11-07T01:33:12.142Z,35.00
2022-11-07T01:35:39.583Z,34.60
2022-11-07T01:38:06.990Z,32.80
2022-11-07T01:40:53.906Z,35.27
2022-11-07T01:43:21.011Z,44.83
2022-11-07T01:45:48.088Z,39.30
2022-11-07T01:48:15.085Z,36.97
2022-11-07T01:50:42.088Z,34.30
2022-11-07T01:53:09.909Z,37.42
2022-11-07T01:55:37.510Z,35.00
2022-11-07T01:58:09.071Z,30.95
2022-11-07T02:00:37.089Z,31.00
2022-11-07T02:03:14.134Z,31.13
2022-11-07T02:05:47.045Z,31.40
2022-11-07T02:08:15.746Z,30.80
2022-11-07T02:10:43.947Z,31.40
2022-11-07T02:13:15.474Z,32.57
2022-11-07T02:15:42.742Z,31.88
2022-11-07T02:18:09.659Z,34.10
2022-11-07T02:20:36.644Z,31.38
2022-11-07T02:23:10.594Z,33.60
2022-11-07T02:25:37.929Z,31.85
2022-11-07T02:28:08.700Z,33.47
2022-11-07T02:30:35.850Z,31.23
2022-11-07T02:33:03.149Z,31.47
2022-11-07T02:35:41.193Z,31.42
2022-11-07T02:38:33.031Z,30.85
2022-11-07T02:41:16.001Z,29.27
2022-11-07T02:43:59.250Z,32.40
2022-11-07T02:46:27.937Z,31.63
2022-11-07T02:48:59.842Z,31.50
2022-11-07T02:51:26.982Z,31.23
2022-11-07T02:53:54.435Z,31.70
2022-11-07T02:56:22.049Z,31.63
2022-11-07T02:58:49.158Z,30.92
2022-11-07T03:01:16.410Z,31.87
2022-11-07T03:03:46.222Z,30.63
2022-11-07T03:06:16.086Z,33.08
2022-11-07T03:08:43.320Z,32.03
2022-11-07T03:11:11.554Z,30.38
2022-11-07T03:13:39.144Z,30.30
2022-11-07T03:16:11.174Z,32.00
2022-11-07T03:18:38.399Z,33.60
2022-11-07T03:21:06.277Z,39.42
2022-11-07T03:23:35.396Z,35.40
2022-11-07T03:26:03.122Z,34.40
2022-11-07T03:28:30.201Z,33.80
2022-11-07T03:31:01.014Z,30.87
2022-11-07T03:33:29.413Z,30.23
2022-11-07T03:35:56.388Z,31.47
2022-11-07T03:38:23.483Z,31.63
2022-11-07T03:40:50.637Z,28.57
2022-11-07T03:43:17.690Z,29.33
2022-11-07T03:45:44.739Z,28.53
2022-11-07T03:48:11.665Z,28.90
2022-11-07T03:50:38.558Z,29.25
2022-11-07T03:53:05.520Z,28.23
2022-11-07T03:55:32.391Z,28.53
2022-11-07T03:57:59.328Z,29.00
2022-11-07T04:00:26.249Z,30.63
2022-11-07T04:02:53.388Z,30.00
2022-11-07T04:05:20.653Z,28.53
2022-11-07T04:07:47.579Z,28.70
2022-11-07T04:10:14.491Z,27.10
2022-11-07T04:12:59.913Z,25.00
2022-11-07T04:15:45.298Z,25.63
2022-11-07T04:18:12.277Z,25.60
2022-11-07T04:20:39.152Z,25.23
2022-11-07T04:23:06.139Z,24.20
2022-11-07T04:25:51.558Z,26.23
2022-11-07T04:28:18.595Z,24.25
2022-11-07T04:30:45.574Z,23.83
2022-11-07T04:33:12.795Z,24.58
2022-11-07T04:35:39.803Z,25.50
2022-11-07T04:38:06.827Z,23.77
2022-11-07T04:40:33.812Z,24.20
2022-11-07T04:43:01.079Z,24.35
2022-11-07T04:45:28.093Z,24.77
2022-11-07T04:47:55.305Z,24.98
2022-11-07T04:50:22.298Z,25.20
2022-11-07T04:52:49.288Z,24.48
2022-11-07T04:55:23.196Z,25.00
2022-11-07T04:57:50.271Z,25.23
2022-11-07T05:00:18.781Z,23.23
2022-11-07T05:02:46.533Z,22.77
2022-11-07T05:05:13.780Z,23.52
2022-11-07T05:07:41.443Z,22.02
2022-11-07T05:10:14.419Z,21.88
2022-11-07T05:12:41.400Z,21.25
2022-11-07T05:15:08.574Z,23.35
2022-11-07T05:17:35.660Z,23.15
2022-11-07T05:20:03.080Z,22.88
2022-11-07T05:22:53.619Z,23.70
2022-11-07T05:25:23.044Z,23.35
2022-11-07T05:27:54.726Z,21.88
2022-11-07T05:30:21.618Z,22.88
2022-11-07T05:32:48.513Z,23.05
2022-11-07T05:35:15.667Z,23.08
2022-11-07T05:37:42.707Z,22.83
2022-11-07T05:40:10.527Z,22.95
2022-11-07T05:42:37.467Z,24.23
2022-11-07T05:45:04.826Z,21.75
2022-11-07T05:47:31.763Z,21.75
2022-11-07T05:49:58.760Z,21.50
2022-11-07T05:52:25.684Z,21.60
2022-11-07T05:54:52.655Z,21.25
2022-11-07T05:57:19.529Z,21.27
2022-11-07T05:59:46.600Z,22.17
2022-11-07T06:02:13.699Z,22.08
2022-11-07T06:04:40.862Z,22.88
2022-11-07T06:07:07.731Z,22.35
2022-11-07T06:09:34.734Z,23.33
2022-11-07T06:12:04.056Z,21.98
2022-11-07T06:14:31.103Z,23.15
2022-11-07T06:16:58.018Z,25.58
2022-11-07T06:19:25.070Z,24.08
2022-11-07T06:21:51.961Z,25.13
2022-11-07T06:24:20.469Z,25.50
2022-11-07T06:26:47.406Z,25.02
2022-11-07T06:29:14.347Z,25.10
2022-11-07T06:31:41.261Z,26.58
2022-11-07T06:34:08.283Z,23.58
2022-11-07T06:36:35.257Z,25.45
2022-11-07T06:39:02.766Z,24.83
2022-11-07T06:41:29.785Z,25.40
2022-11-07T06:43:56.921Z,24.98
2022-11-07T06:46:25.281Z,24.80
2022-11-07T06:48:52.251Z,24.17
2022-11-07T06:51:19.168Z,24.70
2022-11-07T06:53:46.427Z,25.13
2022-11-07T06:56:15.963Z,24.42
2022-11-07T06:58:43.003Z,23.70
2022-11-07T07:01:13.799Z,23.48
2022-11-07T07:03:42.167Z,24.15
2022-11-07T07:06:14.732Z,24.23
2022-11-07T07:08:42.276Z,25.15
2022-11-07T07:11:12.447Z,25.75
2022-11-07T07:13:39.818Z,25.35
2022-11-07T07:16:07.701Z,24.75
2022-11-07T07:18:35.531Z,30.33
2022-11-07T07:21:09.036Z,25.30
2022-11-07T07:23:36.287Z,25.60
2022-11-07T07:26:05.422Z,24.58
2022-11-07T07:28:32.779Z,24.60
2022-11-07T07:31:15.188Z,25.35
2022-11-07T07:33:43.279Z,25.17
2022-11-07T07:36:12.458Z,25.15
2022-11-07T07:38:41.658Z,23.35
2022-11-07T07:41:08.870Z,23.58
2022-11-07T07:43:35.890Z,20.98
2022-11-07T07:46:05.730Z,22.70
2022-11-07T07:48:33.079Z,21.95
2022-11-07T07:51:00.129Z,19.48
2022-11-07T07:53:27.209Z,21.08
2022-11-07T07:56:02.831Z,20.52
2022-11-07T07:58:29.788Z,19.67
2022-11-07T08:00:59.618Z,19.42
2022-11-07T08:03:32.179Z,19.73
2022-11-07T08:06:07.203Z,19.83
2022-11-07T08:08:38.174Z,22.38
2022-11-07T08:11:08.269Z,22.02
2022-11-07T08:13:36.240Z,22.02
2022-11-07T08:16:05.216Z,21.15
2022-11-07T08:18:32.301Z,21.35
2022-11-07T08:20:59.163Z,21.02
2022-11-07T08:23:26.201Z,22.55
2022-11-07T08:25:57.968Z,21.95
2022-11-07T08:28:28.233Z,20.85
2022-11-07T08:31:10.436Z,27.15
2022-11-07T08:33:37.818Z,21.25
2022-11-07T08:36:05.759Z,21.38
2022-11-07T08:38:34.655Z,20.20
2022-11-07T08:41:01.889Z,21.08
2022-11-07T08:43:28.870Z,19.05
2022-11-07T08:45:56.167Z,20.33
2022-11-07T08:48:24.083Z,19.92
2022-11-07T08:50:56.190Z,20.67
2022-11-07T08:53:24.482Z,20.50
2022-11-07T08:55:51.469Z,19.10
2022-11-07T08:58:19.242Z,20.25
2022-11-07T09:00:46.801Z,20.30
2022-11-07T09:06:01.410Z,19.00
2022-11-07T09:08:28.527Z,19.67
2022-11-07T09:10:55.657Z,19.15
2022-11-07T09:13:22.715Z,19.75
2022-11-07T09:15:51.859Z,18.38
2022-11-07T09:18:19.882Z,19.20
2022-11-07T09:20:47.571Z,18.75
2022-11-07T09:23:15.083Z,19.58
2022-11-07T09:25:42.288Z,19.85
2022-11-07T09:28:09.622Z,19.27
2022-11-07T09:30:36.545Z,18.88
2022-11-07T09:33:03.578Z,19.30
2022-11-07T09:35:30.546Z,19.00
2022-11-07T09:37:57.671Z,19.20
2022-11-07T09:40:27.440Z,16.55
2022-11-07T09:43:13.974Z,16.63
2022-11-07T09:45:55.111Z,16.25
2022-11-07T09:48:25.627Z,17.20
2022-11-07T09:50:52.970Z,17.83
2022-11-07T09:53:22.921Z,19.10
2022-11-07T09:56:04.059Z,18.75
2022-11-07T09:58:40.407Z,18.92
2022-11-07T10:01:13.763Z,18.60
2022-11-07T10:03:52.867Z,17.73
2022-11-07T10:07:00.052Z,16.55
2022-11-07T10:09:36.480Z,16.20
2022-11-07T10:12:12.754Z,13.75
2022-11-07T10:15:16.502Z,13.30
2022-11-07T10:17:49.808Z,12.82
2022-11-07T10:20:40.807Z,12.75
2022-11-07T10:23:29.028Z,11.73
2022-11-07T10:26:27.377Z,10.93
2022-11-07T10:29:01.928Z,10.55
2022-11-07T10:31:36.052Z,9.90
2022-11-07T10:34:09.488Z,10.07
2022-11-07T10:36:36.532Z,11.13
2022-11-07T10:39:14.336Z,11.30
2022-11-07T10:41:47.519Z,10.98
2022-11-07T10:44:22.877Z,29.35
2022-11-07T10:46:53.270Z,12.00
2022-11-07T10:49:31.761Z,10.95
2022-11-07T10:52:09.916Z,10.00
2022-11-07T10:54:37.060Z,9.60
2022-11-07T10:57:05.439Z,9.82
2022-11-07T10:59:36.899Z,10.00
2022-11-07T11:02:21.411Z,9.85
2022-11-07T11:04:51.517Z,9.18
2022-11-07T11:07:21.855Z,8.85
2022-11-07T11:09:54.465Z,8.68
2022-11-07T11:12:28.149Z,8.23
2022-11-07T11:15:15.104Z,8.27
2022-11-07T11:17:42.195Z,7.65
2022-11-07T11:20:26.166Z,8.02
2022-11-07T11:22:53.853Z,6.82
2022-11-07T11:25:21.972Z,7.07
2022-11-07T11:27:55.738Z,6.28
2022-11-07T11:30:23.392Z,6.53
2022-11-07T11:33:05.856Z,6.35
2022-11-07T11:35:58.502Z,6.40
2022-11-07T11:38:37.977Z,5.65
2022-11-07T11:41:11.223Z,5.80
2022-11-07T11:43:54.494Z,5.68
2022-11-07T11:46:37.570Z,5.80
2022-11-07T11:49:21.923Z,5.53
2022-11-07T11:52:01.158Z,5.15
2022-11-07T11:54:28.373Z,5.75
2022-11-07T11:57:01.216Z,5.28
2022-11-07T11:59:55.352Z,4.85
2022-11-07T12:02:25.153Z,6.65
2022-11-07T12:05:29.468Z,4.30
2022-11-07T12:08:14.596Z,4.88
2022-11-07T12:11:02.797Z,5.50
2022-11-07T12:13:53.536Z,4.57
2022-11-07T12:16:38.631Z,4.80
2022-11-07T12:19:13.799Z,4.85
2022-11-07T12:21:51.878Z,5.20
2022-11-07T12:24:37.427Z,4.75
2022-11-07T12:27:16.166Z,4.90
2022-11-07T12:30:03.441Z,5.05
2022-11-07T12:32:45.731Z,4.95
2022-11-07T12:35:43.964Z,4.63
2022-11-07T12:38:49.739Z,4.10
2022-11-07T12:41:27.687Z,4.57
2022-11-07T12:44:12.895Z,3.88
2022-11-07T12:46:39.732Z,4.05
2022-11-07T12:49:15.443Z,3.67
2022-11-07T12:51:59.634Z,3.95
2022-11-07T12:54:42.671Z,3.92
2022-11-07T12:57:33.826Z,3.55
2022-11-07T13:00:27.696Z,3.40
2022-11-07T13:03:31.416Z,3.45
2022-11-07T13:06:15.450Z,4.30
2022-11-07T13:09:03.687Z,3.60
2022-11-07T13:12:08.865Z,3.92
2022-11-07T13:14:40.877Z,4.28
2022-11-07T13:17:07.833Z,4.15
2022-11-07T13:19:37.334Z,3.85
2022-11-07T13:22:21.440Z,4.13
2022-11-07T13:25:10.544Z,4.20
2022-11-07T13:27:43.594Z,4.30
2022-11-07T13:30:20.272Z,3.65
2022-11-07T13:32:49.968Z,4.20
2022-11-07T13:35:30.262Z,3.80
2022-11-07T13:38:07.276Z,3.63
2022-11-07T13:41:01.808Z,4.18
2022-11-07T13:43:51.916Z,4.28
2022-11-07T13:46:46.587Z,3.97
2022-11-07T13:49:27.256Z,3.75
2022-11-07T13:52:01.240Z,4.10
2022-11-07T13:54:39.786Z,3.85
2022-11-07T13:57:18.125Z,3.65
2022-11-07T14:00:05.250Z,4.05
2022-11-07T14:02:39.566Z,3.83
2022-11-07T14:05:18.699Z,3.97
2022-11-07T14:08:13.465Z,3.70
2022-11-07T14:10:46.566Z,3.72
2022-11-07T14:13:31.593Z,3.72
2022-11-07T14:16:05.207Z,3.30
2022-11-07T14:18:43.081Z,3.47
2022-11-07T14:21:26.791Z,3.78
2022-11-07T14:23:54.426Z,3.95
2022-11-07T14:26:43.708Z,3.88
2022-11-07T14:29:21.800Z,4.00
2022-11-07T14:31:48.991Z,3.60
2022-11-07T14:34:21.537Z,3.90
2022-11-07T14:36:54.811Z,4.47
2022-11-07T14:39:23.325Z,4.43
2022-11-07T14:41:51.072Z,4.75
2022-11-07T14:44:56.231Z,4.10
2022-11-07T14:47:30.539Z,3.80
2022-11-07T14:49:59.145Z,3.85
2022-11-07T14:52:39.289Z,3.95
2022-11-07T14:55:13.288Z,4.05
2022-11-07T14:57:41.735Z,4.25
2022-11-07T15:00:15.531Z,4.50
2022-11-07T15:02:44.481Z,3.90
2022-11-07T15:05:31.246Z,4.00
2022-11-07T15:08:00.037Z,4.32
2022-11-07T15:10:33.698Z,4.47
2022-11-07T15:13:06.563Z,4.35
2022-11-07T15:15:37.920Z,4.10
2022-11-07T15:18:06.763Z,4.20
2022-11-07T15:20:38.637Z,4.30
2022-11-07T15:23:14.718Z,4.28
2022-11-07T15:25:53.721Z,4.38
2022-11-07T15:28:28.416Z,4.50
2022-11-07T15:30:59.971Z,4.28
2022-11-07T15:33:31.700Z,4.78
2022-11-07T15:36:00.955Z,4.75
2022-11-07T15:38:29.677Z,4.68
2022-11-07T15:40:56.823Z,4.72
2022-11-07T15:43:23.716Z,4.72
2022-11-07T15:45:52.978Z,5.32
2022-11-07T15:48:22.849Z,5.13
2022-11-07T15:50:50.540Z,5.75
2022-11-07T15:53:21.617Z,5.60
2022-11-07T15:55:53.447Z,5.85
2022-11-07T15:58:24.106Z,6.18
2022-11-07T16:00:52.535Z,6.35
2022-11-07T16:03:23.576Z,6.57
2022-11-07T16:05:52.609Z,6.43
2022-11-07T16:08:25.039Z,6.97
2022-11-07T16:10:58.325Z,6.88
2022-11-07T16:13:25.495Z,7.35
2022-11-07T16:15:56.831Z,7.10
2022-11-07T16:18:24.082Z,7.47
2022-11-07T16:20:51.823Z,8.07
2022-11-07T16:23:19.387Z,7.85
2022-11-07T16:25:49.996Z,8.13
2022-11-07T16:28:28.818Z,8.55
2022-11-07T16:30:56.264Z,8.52
2022-11-07T16:33:23.683Z,7.85
2022-11-07T16:35:53.408Z,8.13
2022-11-07T16:38:22.622Z,8.20
2022-11-07T16:40:50.037Z,8.32
2022-11-07T16:43:17.491Z,8.60
2022-11-07T16:45:47.188Z,8.32
2022-11-07T16:48:32.325Z,9.05
2022-11-07T16:50:59.449Z,8.50
2022-11-07T16:53:27.102Z,8.77
2022-11-07T16:55:55.596Z,9.32
2022-11-07T16:58:30.647Z,9.52
2022-11-07T17:01:05.323Z,9.52
2022-11-07T17:03:33.438Z,9.57
2022-11-07T17:06:02.899Z,9.90
2022-11-07T17:08:37.853Z,9.75
2022-11-07T17:11:05.926Z,9.52
2022-11-07T17:13:32.896Z,9.88
2022-11-07T17:16:00.287Z,9.70
2022-11-07T17:18:27.769Z,9.70
2022-11-07T17:20:55.266Z,10.15
2022-11-07T17:23:29.605Z,10.73
2022-11-07T17:26:02.592Z,10.63
2022-11-07T17:28:29.693Z,10.85
2022-11-07T17:30:56.728Z,10.53
2022-11-07T17:33:23.770Z,10.32
2022-11-07T17:35:54.914Z,10.77
2022-11-07T17:38:21.885Z,11.15
2022-11-07T17:40:48.815Z,11.45
2022-11-07T17:43:16.316Z,12.02
2022-11-07T17:45:43.256Z,13.00
2022-11-07T17:48:11.154Z,12.75
2022-11-07T17:50:38.349Z,13.25
2022-11-07T17:53:05.260Z,14.07
2022-11-07T17:55:32.375Z,15.80
2022-11-07T17:57:59.720Z,17.48
2022-11-07T18:00:27.810Z,19.13
2022-11-07T18:02:54.956Z,19.70
2022-11-07T18:05:24.090Z,19.30
2022-11-07T18:07:53.785Z,19.17
2022-11-07T18:10:20.933Z,19.10
2022-11-07T18:12:47.998Z,19.10
2022-11-07T18:15:14.864Z,19.23
2022-11-07T18:17:41.964Z,19.60
2022-11-07T18:20:10.246Z,19.35
2022-11-07T18:22:37.729Z,19.58
2022-11-07T18:25:06.814Z,19.33
2022-11-07T18:27:34.196Z,18.98
2022-11-07T18:30:02.050Z,18.05
2022-11-07T18:32:34.652Z,18.27
2022-11-07T18:35:06.376Z,17.33
2022-11-07T18:37:34.156Z,18.25
2022-11-07T18:40:01.269Z,18.25
2022-11-07T18:42:29.440Z,19.33
2022-11-07T18:44:56.704Z,19.13
2022-11-07T18:47:23.867Z,18.90
2022-11-07T18:49:55.785Z,19.80
2022-11-07T18:52:24.348Z,20.13
2022-11-07T18:54:51.901Z,20.25
2022-11-07T18:57:18.858Z,20.17
2022-11-07T18:59:46.339Z,20.42
2022-11-07T19:02:14.000Z,20.80
2022-11-07T19:04:43.636Z,21.15
2022-11-07T19:07:10.906Z,21.77
2022-11-07T19:09:38.001Z,22.15
2022-11-07T19:12:05.145Z,22.85
2022-11-07T19:14:32.160Z,22.90
2022-11-07T19:16:59.258Z,22.77
2022-11-07T19:19:26.154Z,23.17
2022-11-07T19:21:53.237Z,21.95
2022-11-07T19:24:20.247Z,22.30
2022-11-07T19:26:47.491Z,22.08
2022-11-07T19:29:14.392Z,22.35
2022-11-07T19:31:41.407Z,22.33
2022-11-07T19:34:08.387Z,23.48
2022-11-07T19:36:37.006Z,24.95
2022-11-07T19:39:04.717Z,24.23
2022-11-07T19:41:31.815Z,25.33
2022-11-07T19:44:01.763Z,24.92
2022-11-07T19:46:28.795Z,24.73
2022-11-07T19:48:56.487Z,25.30
2022-11-07T19:51:23.565Z,24.98
2022-11-07T19:53:55.720Z,24.92
2022-11-07T19:56:24.191Z,25.63
2022-11-07T19:58:51.701Z,24.42
2022-11-07T20:01:21.710Z,24.13
2022-11-07T20:03:51.177Z,24.02
2022-11-07T20:06:30.505Z,23.70
2022-11-07T20:08:58.011Z,23.55
2022-11-07T20:11:26.806Z,21.58
2022-11-07T20:13:58.700Z,20.95
2022-11-07T20:16:28.877Z,23.83
2022-11-07T20:18:55.761Z,22.63
2022-11-07T20:21:24.592Z,23.70
2022-11-07T20:23:54.548Z,25.17
2022-11-07T20:26:23.371Z,24.73
2022-11-07T20:28:51.142Z,25.02
2022-11-07T20:31:36.976Z,26.42
2022-11-07T20:34:07.190Z,24.20
2022-11-07T20:36:34.751Z,25.30
2022-11-07T20:39:02.423Z,26.85
2022-11-07T20:41:29.433Z,24.42
2022-11-07T20:44:01.262Z,24.15
2022-11-07T20:46:28.485Z,23.48
2022-11-07T20:48:55.423Z,22.35
2022-11-07T20:51:25.399Z,21.88
2022-11-07T20:53:53.050Z,21.48
2022-11-07T20:56:21.847Z,21.25
2022-11-07T20:58:49.095Z,21.98
2022-11-07T21:01:28.004Z,22.20
2022-11-07T21:03:55.161Z,21.20
2022-11-07T21:06:22.073Z,21.25
2022-11-07T21:08:50.294Z,22.20
2022-11-07T21:11:17.691Z,22.05
2022-11-07T21:13:49.697Z,22.05
2022-11-07T21:16:22.978Z,22.73
2022-11-07T21:18:51.520Z,23.67
2022-11-07T21:21:21.809Z,23.75
2022-11-07T21:23:49.965Z,24.75
2022-11-07T21:26:23.087Z,27.40
2022-11-07T21:28:50.725Z,25.77
2022-11-07T21:31:23.812Z,25.90
2022-11-07T21:33:51.974Z,26.23
2022-11-07T21:36:22.780Z,25.98
2022-11-07T21:38:50.057Z,24.85
2022-11-07T21:41:17.245Z,25.80
2022-11-07T21:43:44.591Z,25.83
2022-11-07T21:46:17.197Z,24.38
2022-11-07T21:48:45.744Z,24.10
2022-11-07T21:51:14.213Z,24.88
2022-11-07T21:53:41.744Z,24.05
2022-11-07T21:56:12.477Z,23.75
2022-11-07T21:58:39.531Z,23.70
2022-11-07T22:01:06.532Z,23.08
2022-11-07T22:04:03.642Z,22.02
2022-11-07T22:06:22.305Z,21.77
2022-11-07T22:08:51.777Z,22.92
2022-11-07T22:11:18.966Z,23.58
2022-11-07T22:13:45.947Z,25.02
2022-11-07T22:16:16.310Z,27.42
2022-11-07T22:18:43.915Z,24.52
2022-11-07T22:21:13.680Z,25.35
2022-11-07T22:23:40.894Z,23.60
2022-11-07T22:26:13.866Z,24.38
2022-11-07T22:28:45.768Z,25.17
2022-11-07T22:31:25.553Z,23.45
2022-11-07T22:33:53.750Z,24.80
2022-11-07T22:36:21.350Z,24.88
2022-11-07T22:38:48.946Z,26.40
2022-11-07T22:41:18.848Z,24.90
2022-11-07T22:43:45.925Z,24.15
2022-11-07T22:46:17.935Z,23.77
2022-11-07T22:48:46.563Z,25.23
2022-11-07T22:51:19.957Z,23.58
2022-11-07T22:53:47.096Z,23.38
2022-11-07T22:56:19.077Z,23.55
2022-11-07T22:58:47.370Z,24.40
2022-11-07T23:01:24.174Z,25.42
2022-11-07T23:03:52.056Z,24.80
2022-11-07T23:06:20.124Z,24.42
2022-11-07T23:08:48.297Z,24.38
2022-11-07T23:11:47.933Z,26.25
2022-11-07T23:14:19.427Z,24.05
2022-11-07T23:16:49.270Z,24.88
2022-11-07T23:19:18.105Z,26.92
2022-11-07T23:21:45.296Z,25.17
2022-11-07T23:24:12.768Z,23.40
2022-11-07T23:26:40.001Z,24.38
2022-11-07T23:29:19.915Z,26.65
2022-11-07T23:31:48.965Z,28.05
2022-11-07T23:34:17.065Z,27.58
2022-11-07T23:36:44.843Z,27.75
2022-11-07T23:39:17.107Z,26.95
2022-11-07T23:41:44.717Z,26.05
2022-11-07T23:44:12.171Z,26.15
2022-11-07T23:46:57.744Z,27.50
2022-11-07T23:49:43.810Z,26.48
2022-11-07T23:52:11.798Z,26.55
2022-11-07T23:54:57.163Z,26.58
2022-11-07T23:57:24.286Z,25.27
